Terminal Aerodrome Forecast
Issued by NWS

Current Version | Previous Version | Text Only | Print | Product List | Glossary On
Versions: 1 2 3 4 5 6 7 8 9 10 11 12 13 14 15 16 17 18 19
474
FTUS44 KCRP 210823 AAA
TAFALI
TAF AMD
KALI 210823Z 2108/2206 24010KT P6SM SKC
     FM211300 32014G19KT P6SM SKC
     FM220000 35006KT P6SM SKC=

USA.gov is the U.S. government's official web portal to all federal, state and local government web resources and services.